Time;durP1;ratioP1;P1;durP2;ratioP2;P2;SDS_P1;SDS_P2;PMS_P1;PMS_P2;Temp;Humidity;BMP_temperature;BMP_pressure;BME280_temperature;BME280_humidity;BME280_pressure;Samples;Min_cycle;Max_cycle;Signal;HPM_P1;HPM_P2
2023/06/27 07:55:42;;;;;;;;;;;;;;;10.25;100.00;100126.16;5603467;22;20423;-86
2023/06/27 07:58:17;;;;;;;;;;;;;;;10.28;100.00;100126.91;5011720;28;19922;-88
2023/06/27 08:00:42;;;;;;;;;;;;;;;10.16;100.00;100122.03;5012364;28;19918;-87
2023/06/27 08:03:07;;;;;;;;;;;;;;;10.23;100.00;100123.56;4995384;28;19921;-88
2023/06/27 08:05:35;;;;;;;;;;;;;;;10.16;100.00;100128.22;4994769;28;19917;-89
2023/06/27 08:08:01;;;;;;;;;;;;;;;10.21;100.00;100120.13;4994584;28;20582;-90
2023/06/27 08:10:36;;;;;;;;;;;;;;;10.26;100.00;100127.84;4992047;28;20004;-88
2023/06/27 08:13:01;;;;;;;;;;;;;;;10.21;100.00;100121.88;5016699;28;19917;-87
2023/06/27 08:15:26;;;;;;;;;;;;;;;10.28;100.00;100126.91;5016148;28;19928;-86
2023/06/27 08:17:52;;;;;;;;;;;;;;;10.26;100.00;100123.44;4997874;28;19926;-89
2023/06/27 08:20:18;;;;;;;;;;;;;;;10.31;100.00;100107.41;4994430;28;19921;-88
2023/06/27 08:22:45;;;;;;;;;;;;;;;10.22;100.00;100115.66;4993218;28;19925;-89
2023/06/27 08:25:10;;;;;;;;;;;;;;;10.21;100.00;100119.22;4992119;28;19983;-85
2023/06/27 08:27:36;;;;;;;;;;;;;;;10.30;100.00;100121.53;5014358;28;19926;-86
2023/06/27 08:30:01;;;;;;;;;;;;;;;10.22;100.00;100119.16;5014176;28;20431;-89
2023/06/27 08:32:26;;;;;;;;;;;;;;;10.27;100.00;100117.22;5014685;28;19926;-89
2023/06/27 08:34:51;;;;;;;;;;;;;;;10.24;100.00;100114.66;4997573;28;19933;-90
2023/06/27 08:37:17;;;;;;;;;;;;;;;10.24;100.00;100119.97;4996410;28;19980;-85
2023/06/27 08:39:42;;;;;;;;;;;;;;;10.22;100.00;100111.22;4995374;28;19933;-89
2023/06/27 08:42:07;;;;;;;;;;;;;;;10.31;100.00;100108.25;5013438;28;19925;-90
2023/06/27 08:44:33;;;;;;;;;;;;;;;10.15;100.00;100107.94;4998938;28;19918;-85
2023/06/27 08:47:03;;;;;;;;;;;;;;;10.24;100.00;100108.53;5012039;28;19933;-88
2023/06/27 08:49:32;;;;;;;;;;;;;;;10.24;100.00;100117.31;5016071;28;19921;-88
2023/06/27 08:51:59;;;;;;;;;;;;;;;10.31;100.00;100102.94;5016533;28;19967;-90
2023/06/27 08:54:31;;;;;;;;;;;;;;;10.32;100.00;100102.06;5010936;28;19929;-86
2023/06/27 08:56:57;;;;;;;;;;;;;;;10.33;100.00;100111.72;5028594;28;19928;-89
2023/06/27 08:59:24;;;;;;;;;;;;;;;10.32;100.00;100106.44;5034525;28;20319;-88
2023/06/27 09:01:50;;;;;;;;;;;;;;;10.27;100.00;100103.97;5017354;28;19928;-85
2023/06/27 09:04:16;;;;;;;;;;;;;;;10.30;100.00;100103.84;5018917;28;19939;-88
2023/06/27 09:06:46;;;;;;;;;;;;;;;10.43;100.00;100109.59;5016402;28;19917;-89
2023/06/27 09:09:12;;;;;;;;;;;;;;;10.34;100.00;100108.16;5014999;28;20015;-87
2023/06/27 09:11:37;;;;;;;;;;;;;;;17.32;100.00;100086.00;5034610;28;20004;-92
2023/06/27 09:14:04;;;;;;;;;;;;;;;16.80;100.00;100069.69;5035173;28;20414;-88
2023/06/27 09:16:34;;;;;;;;;;;;;;;12.58;100.00;100098.13;5014760;28;20019;-90
2023/06/27 09:18:59;;;;;;;;;;;;;;;11.66;100.00;100103.00;5016296;28;19925;-86
2023/06/27 09:21:25;;;;;;;;;;;;;;;11.32;100.00;100099.13;5033589;28;19924;-87
2023/06/27 09:23:51;;;;;;;;;;;;;;;11.12;100.00;100097.25;5032296;28;20395;-88
2023/06/27 09:26:16;;;;;;;;;;;;;;;10.94;100.00;100094.41;5032168;28;19917;-87
2023/06/27 09:28:45;;;;;;;;;;;;;;;10.86;100.00;100091.22;5034592;28;19928;-88
2023/06/27 09:31:56;;;;;;;;;;;;;;;10.94;100.00;100085.59;5017091;28;19921;-89
2023/06/27 09:34:26;;;;;;;;;;;;;;;11.03;100.00;100088.75;5033627;28;19928;-87
2023/06/27 09:37:00;;;;;;;;;;;;;;;11.04;100.00;100085.19;5014995;28;19921;-90
2023/06/27 09:39:26;;;;;;;;;;;;;;;10.88;100.00;100089.34;5036902;28;19953;-88
2023/06/27 09:42:11;;;;;;;;;;;;;;;10.87;100.00;100093.78;5017528;28;19967;-91
2023/06/27 09:44:37;;;;;;;;;;;;;;;10.80;100.00;100097.63;5001944;28;20358;-89
2023/06/27 09:47:11;;;;;;;;;;;;;;;10.86;100.00;100091.22;5033804;28;19951;-90
2023/06/27 09:49:46;;;;;;;;;;;;;;;10.71;100.00;100093.53;5016834;28;20272;-90
2023/06/27 09:52:11;;;;;;;;;;;;;;;10.75;100.00;100086.31;5013264;28;19928;-91
2023/06/27 09:54:42;;;;;;;;;;;;;;;10.72;100.00;100095.28;5033427;28;19921;-93
2023/06/27 09:57:16;;;;;;;;;;;;;;;10.59;100.00;100091.34;5015917;28;20008;-90
2023/06/27 09:59:45;;;;;;;;;;;;;;;10.62;100.00;100085.94;5016096;28;19921;-88
2023/06/27 10:02:11;;;;;;;;;;;;;;;10.64;100.00;100080.56;5015514;28;19921;-92
2023/06/27 10:04:45;;;;;;;;;;;;;;;10.81;100.00;100077.28;5015695;28;19921;-94
2023/06/27 10:07:35;;;;;;;;;;;;;;;10.68;100.00;100072.44;5017670;28;19975;-94
2023/06/27 10:12:33;;;;;;;;;;;;;;;10.62;100.00;100077.97;5308052;22;19925;-90
2023/06/27 10:14:58;;;;;;;;;;;;;;;10.74;100.00;100076.66;5041763;28;20044;-85
2023/06/27 10:17:24;;;;;;;;;;;;;;;10.87;100.00;100077.03;5044238;28;19928;-90
2023/06/27 10:19:49;;;;;;;;;;;;;;;10.85;100.00;100076.22;5060664;28;20354;-87
2023/06/27 10:22:18;;;;;;;;;;;;;;;10.86;100.00;100080.59;5045543;28;19920;-89
2023/06/27 10:24:49;;;;;;;;;;;;;;;10.87;100.00;100077.03;5041283;28;19928;-90
2023/06/27 10:27:21;;;;;;;;;;;;;;;10.80;100.00;100079.06;5041878;28;19921;-91
2023/06/27 10:29:49;;;;;;;;;;;;;;;10.82;100.00;100076.38;5043597;28;20069;-91
2023/06/27 10:32:18;;;;;;;;;;;;;;;10.88;100.00;100079.63;5057994;28;20402;-92
2023/06/27 10:41:03;;;;;;;;;;;;;;;11.06;100.00;100087.78;5105594;22;19984;-90
2023/06/27 10:46:38;;;;;;;;;;;;;;;11.05;100.00;100086.03;5019682;28;19918;-91
2023/06/27 10:55:06;;;;;;;;;;;;;;;11.13;100.00;100091.91;4661252;26;19929;-94
2023/06/27 10:57:51;;;;;;;;;;;;;;;11.32;100.00;100078.75;5014853;28;19925;-95
2023/06/27 11:04:04;;;;;;;;;;;;;;;10.95;100.00;100069.63;5034876;23;19936;-94
2023/06/27 11:09:10;;;;;;;;;;;;;;;11.00;100.00;100067.66;5049262;23;20371;-93
2023/06/27 11:14:53;;;;;;;;;;;;;;;10.98;100.00;100069.53;5146029;23;19933;-93
2023/06/27 11:17:21;;;;;;;;;;;;;;;10.88;100.00;100060.19;4989781;28;20138;-94
2023/06/27 11:19:48;;;;;;;;;;;;;;;11.04;100.00;100063.97;4987241;28;20282;-94
2023/06/27 11:22:14;;;;;;;;;;;;;;;10.99;100.00;100067.72;4985342;28;19921;-92
2023/06/27 11:24:40;;;;;;;;;;;;;;;10.95;100.00;100060.84;4988403;28;19925;-90
2023/06/27 11:27:07;;;;;;;;;;;;;;;11.04;100.00;100061.31;5025721;23;20009;-92
2023/06/27 11:32:09;;;;;;;;;;;;;;;10.91;100.00;100057.41;5803839;23;19991;-91
2023/06/27 11:34:42;;;;;;;;;;;;;;;11.12;100.00;100062.78;5000746;28;19922;-91
2023/06/27 11:37:16;;;;;;;;;;;;;;;11.22;100.00;100066.81;5001971;28;20016;-88
2023/06/27 11:43:18;;;;;;;;;;;;;;;11.08;100.00;100044.34;5032649;23;20558;-90
2023/06/27 11:45:52;;;;;;;;;;;;;;;11.10;100.00;100033.69;5021026;28;20382;-92
2023/06/27 11:48:18;;;;;;;;;;;;;;;11.15;100.00;100039.66;5018813;28;19921;-89
2023/06/27 11:51:02;;;;;;;;;;;;;;;11.19;100.00;100035.94;5022977;28;20425;-92
2023/06/27 11:53:30;;;;;;;;;;;;;;;11.07;100.00;100033.81;5020872;28;20427;-92
2023/06/27 11:55:55;;;;;;;;;;;;;;;11.09;100.00;100019.56;5020847;28;19929;-92
2023/06/27 11:58:36;;;;;;;;;;;;;;;11.21;100.00;100027.94;5019458;28;19937;-91
2023/06/27 12:01:04;;;;;;;;;;;;;;;11.25;100.00;100025.09;5023720;28;19921;-91
2023/06/27 12:03:32;;;;;;;;;;;;;;;11.33;100.00;100022.13;5001713;23;20286;-90
2023/06/27 12:05:58;;;;;;;;;;;;;;;11.37;100.00;100020.19;4948089;28;19922;-90
2023/06/27 12:08:29;;;;;;;;;;;;;;;11.56;100.00;100025.56;4989796;23;19932;-91
2023/06/27 12:11:00;;;;;;;;;;;;;;;11.54;100.00;100019.50;5034299;28;19932;-93
2023/06/27 12:14:00;;;;;;;;;;;;;;;11.75;100.00;100015.88;5028020;28;20012;-91
2023/06/27 12:16:48;;;;;;;;;;;;;;;11.34;100.00;100005.25;5008260;28;20399;-91
2023/06/27 12:19:20;;;;;;;;;;;;;;;11.21;100.00;100017.31;5045592;28;19920;-91
2023/06/27 12:21:46;;;;;;;;;;;;;;;11.31;100.00;100013.34;5044731;28;20062;-91
2023/06/27 12:24:21;;;;;;;;;;;;;;;11.33;100.00;100008.84;5027132;28;20027;-92
2023/06/27 12:27:09;;;;;;;;;;;;;;;11.37;100.00;100004.28;5026025;28;19943;-93
2023/06/27 12:29:37;;;;;;;;;;;;;;;11.35;100.00;99998.19;5014691;28;19928;-93
2023/06/27 12:32:05;;;;;;;;;;;;;;;11.31;100.00;100001.88;5043571;28;19922;-95
2023/06/27 12:34:30;;;;;;;;;;;;;;;11.37;100.00;100002.47;5043868;28;19928;-91
2023/06/27 12:36:59;;;;;;;;;;;;;;;11.34;100.00;100002.59;5041194;28;19925;-92
2023/06/27 12:39:39;;;;;;;;;;;;;;;11.35;100.00;99992.88;5025019;28;19924;-92
2023/06/27 12:45:08;;;;;;;;;;;;;;;11.27;100.00;99993.19;5050213;28;19921;-93
2023/06/27 12:47:39;;;;;;;;;;;;;;;11.27;100.00;99985.25;5027509;28;19917;-94
2023/06/27 12:50:05;;;;;;;;;;;;;;;11.43;100.00;99986.31;5030100;28;20000;-91
2023/06/27 12:52:48;;;;;;;;;;;;;;;;;;;;;
2023/06/27 12:55:32;;;;;;;;;;;;;;;11.19;100.00;99982.06;5039829;28;19921;-94
2023/06/27 13:00:39;;;;;;;;;;;;;;;;;;;;;
2023/06/27 13:03:28;;;;;;;;;;;;;;;11.25;100.00;99984.44;4996710;28;19922;-94
2023/06/27 13:06:23;;;;;;;;;;;;;;;;;;;;;
2023/06/27 13:09:22;;;;;;;;;;;;;;;;;;;;;
2023/06/27 13:11:47;;;;;;;;;;;;;;;11.46;100.00;99974.69;4996764;28;19928;-94
2023/06/27 13:14:42;;;;;;;;;;;;;;;11.32;100.00;99964.69;4993204;28;20001;-92
2023/06/27 13:17:17;;;;;;;;;;;;;;;;;;;;;
2023/06/27 13:19:55;;;;;;;;;;;;;;;;;;;;;
2023/06/27 13:22:48;;;;;;;;;;;;;;;11.34;100.00;99957.50;4975985;28;19919;-93
2023/06/27 13:25:46;;;;;;;;;;;;;;;;;;;;;
2023/06/27 13:28:12;;;;;;;;;;;;;;;11.26;100.00;99951.69;4975248;28;20376;-89
2023/06/27 13:30:37;;;;;;;;;;;;;;;11.39;100.00;99942.28;4959542;28;20005;-91
2023/06/27 13:33:14;;;;;;;;;;;;;;;11.27;100.00;99950.75;4962740;28;19985;-92
2023/06/27 13:35:50;;;;;;;;;;;;;;;;;;;;;
2023/06/27 13:38:20;;;;;;;;;;;;;;;11.31;100.00;99932.91;4974889;28;19922;-94
2023/06/27 13:41:11;;;;;;;;;;;;;;;11.49;100.00;99944.50;4958759;28;20345;-93
2023/06/27 13:43:36;;;;;;;;;;;;;;;11.33;100.00;99936.34;4958961;28;19922;-91
2023/06/27 13:46:21;;;;;;;;;;;;;;;11.40;100.00;99932.50;4975900;28;19957;-93
2023/06/27 13:48:53;;;;;;;;;;;;;;;11.55;100.00;99933.63;4972478;28;19925;-93
2023/06/27 13:51:23;;;;;;;;;;;;;;;11.49;100.00;99931.22;4991357;28;19980;-93
2023/06/27 13:53:49;;;;;;;;;;;;;;;11.41;100.00;99929.78;4994295;28;19921;-93
2023/06/27 13:56:19;;;;;;;;;;;;;;;11.61;100.00;99936.00;4975790;28;20373;-93
2023/06/27 13:58:47;;;;;;;;;;;;;;;11.41;100.00;99929.78;4995860;28;19945;-92
2023/06/27 14:01:14;;;;;;;;;;;;;;;11.30;100.00;99926.75;4954135;28;19976;-92
2023/06/27 14:04:06;;;;;;;;;;;;;;;11.27;100.00;99924.22;4940245;28;19925;-91
2023/06/27 14:06:51;;;;;;;;;;;;;;;;;;;;;
2023/06/27 14:09:46;;;;;;;;;;;;;;;;;;;;;
2023/06/27 14:12:17;;;;;;;;;;;;;;;11.25;100.00;99926.09;4951850;29;19922;-93
2023/06/27 14:14:44;;;;;;;;;;;;;;;11.38;100.00;99919.31;4953599;29;19948;-95
2023/06/27 14:17:13;;;;;;;;;;;;;;;11.41;100.00;99916.53;4953962;29;19930;-94
2023/06/27 14:19:47;;;;;;;;;;;;;;;11.32;100.00;99908.13;4938747;29;20003;-93
2023/06/27 14:22:13;;;;;;;;;;;;;;;11.54;100.00;99906.22;4937625;29;20137;-90
2023/06/27 14:24:41;;;;;;;;;;;;;;;11.37;100.00;99895.50;4937599;29;20009;-93
2023/06/27 14:33:14;;;;;;;;;;;;;;;;;;;;;
2023/06/27 14:35:29;;;;;;;;;;;;;;;11.40;100.00;99893.56;4933468;29;19964;-93
2023/06/27 14:37:56;;;;;;;;;;;;;;;11.40;100.00;99900.69;4933588;29;19923;-93
2023/06/27 14:40:45;;;;;;;;;;;;;;;11.58;100.00;99904.28;4942213;28;19922;-94
2023/06/27 14:43:20;;;;;;;;;;;;;;;;;;;;;
2023/06/27 14:46:44;;;;;;;;;;;;;;;11.42;100.00;99899.69;5035192;28;20326;-94
2023/06/27 14:49:00;;;;;;;;;;;;;;;11.43;100.00;99896.09;5015375;28;20284;-93
2023/06/27 14:51:58;;;;;;;;;;;;;;;;;;;;;
2023/06/27 15:01:24;;;;;;;;;;;;;;;;;;;;;
2023/06/27 15:04:38;;;;;;;;;;;;;;;;;;;;;
2023/06/27 15:10:48;;;;;;;;;;;;;;;;;;;;;
2023/06/27 15:13:56;;;;;;;;;;;;;;;;;;;;;
2023/06/27 15:16:27;;;;;;;;;;;;;;;11.35;100.00;99879.66;4813978;29;19920;-94
2023/06/27 15:19:36;;;;;;;;;;;;;;;11.59;100.00;99884.78;4857063;29;19920;-95
2023/06/27 15:26:05;;;;;;;;;;;;;;;11.42;100.00;99880.25;4808395;29;20396;-96
2023/06/27 15:28:31;;;;;;;;;;;;;;;11.75;100.00;99880.50;4860995;29;19920;-91
2023/06/27 15:30:56;;;;;;;;;;;;;;;11.48;100.00;99881.78;5010712;23;19996;-87
2023/06/27 15:36:36;;;;;;;;;;;;;;;11.51;100.00;99871.03;5007004;23;19929;-92
2023/06/27 15:39:19;;;;;;;;;;;;;;;;;;;;;
2023/06/27 15:41:44;;;;;;;;;;;;;;;11.52;100.00;99878.91;5044546;28;19928;-87
2023/06/27 15:44:20;;;;;;;;;;;;;;;11.44;100.00;99878.41;5040249;28;20019;-94
2023/06/27 15:46:47;;;;;;;;;;;;;;;11.54;100.00;99879.69;5019081;28;19948;-90
2023/06/27 15:49:20;;;;;;;;;;;;;;;11.56;100.00;99875.16;5017462;28;20004;-95
2023/06/27 15:52:05;;;;;;;;;;;;;;;;;;;;;
2023/06/27 15:55:04;;;;;;;;;;;;;;;;;;;;;
2023/06/27 16:00:54;;;;;;;;;;;;;;;;;;;;;
2023/06/27 16:46:14;;;;;;;;;;;;;;;11.57;100.00;99854.81;4981519;28;19917;-93
2023/06/27 16:49:13;;;;;;;;;;;;;;;;;;;;;
2023/06/27 16:52:00;;;;;;;;;;;;;;;11.54;100.00;99849.66;5014366;28;19919;-94
2023/06/27 16:54:37;;;;;;;;;;;;;;;11.71;100.00;99847.09;4965690;28;20337;-92
2023/06/27 17:00:05;;;;;;;;;;;;;;;;;;;;;
2023/06/27 17:02:47;;;;;;;;;;;;;;;;;;;;;
2023/06/27 17:05:38;;;;;;;;;;;;;;;11.55;100.00;99835.44;4981843;28;19924;-94
2023/06/27 17:08:19;;;;;;;;;;;;;;;;;;;;;
2023/06/27 17:10:47;;;;;;;;;;;;;;;11.58;100.00;99843.25;4980211;28;19981;-93
2023/06/27 17:13:13;;;;;;;;;;;;;;;11.60;100.00;99844.06;4977052;28;19918;-93
2023/06/27 17:15:41;;;;;;;;;;;;;;;11.68;100.00;99841.91;4977756;28;20026;-93
2023/06/27 17:18:11;;;;;;;;;;;;;;;11.82;100.00;99838.59;4981550;28;19971;-92
2023/06/27 17:20:37;;;;;;;;;;;;;;;11.60;100.00;99828.16;5005596;28;19913;-92
2023/06/27 17:23:15;;;;;;;;;;;;;;;;;;;;;
2023/06/27 17:25:49;;;;;;;;;;;;;;;11.49;100.00;99831.28;5020348;28;19988;-93
2023/06/27 17:28:31;;;;;;;;;;;;;;;11.69;100.00;99833.00;4985181;28;19998;-93
2023/06/27 17:31:25;;;;;;;;;;;;;;;11.65;100.00;99820.81;4966341;28;19941;-94
2023/06/27 17:34:01;;;;;;;;;;;;;;;11.57;100.00;99836.25;4981443;28;19918;-93
2023/06/27 17:36:28;;;;;;;;;;;;;;;11.71;100.00;99839.13;4967172;28;20014;-93
2023/06/27 17:38:57;;;;;;;;;;;;;;;11.79;100.00;99838.72;4963693;28;19933;-91
2023/06/27 17:44:17;;;;;;;;;;;;;;;11.68;100.00;99828.66;5104051;22;19928;-94
2023/06/27 17:46:51;;;;;;;;;;;;;;;11.65;100.00;99826.13;5034435;28;19932;-94
2023/06/27 17:49:24;;;;;;;;;;;;;;;11.67;100.00;99823.41;5037465;28;19917;-93
2023/06/27 17:51:51;;;;;;;;;;;;;;;11.86;100.00;99826.91;5031916;28;19921;-91
2023/06/27 17:57:25;;;;;;;;;;;;;;;11.63;100.00;99825.31;5105337;22;19983;-92
2023/06/27 17:59:56;;;;;;;;;;;;;;;11.66;100.00;99830.50;5037661;23;20398;-93
2023/06/27 18:02:21;;;;;;;;;;;;;;;11.64;100.00;99825.25;5022444;28;19964;-94
2023/06/27 18:06:00;;;;;;;;;;;;;;;;;;;;;
2023/06/27 18:08:02;;;;;;;;;;;;;;;11.47;100.00;99824.31;5018776;28;19925;-92
2023/06/27 18:13:00;;;;;;;;;;;;;;;11.15;100.00;99827.47;5082481;22;19929;-90
2023/06/27 18:18:43;;;;;;;;;;;;;;;11.06;100.00;99828.78;5633715;23;20023;-94
2023/06/27 18:21:08;;;;;;;;;;;;;;;10.94;100.00;99825.81;5047304;28;20327;-93
2023/06/27 18:23:33;;;;;;;;;;;;;;;10.91;100.00;99829.44;5035865;28;19970;-93
2023/06/27 18:26:01;;;;;;;;;;;;;;;11.05;100.00;99847.41;5009296;28;19956;-93
2023/06/27 18:31:17;;;;;;;;;;;;;;;;;;;;;
2023/06/27 18:33:44;;;;;;;;;;;;;;;10.93;100.00;99832.91;4991676;28;20359;-93
2023/06/27 18:36:28;;;;;;;;;;;;;;;;;;;;;
2023/06/27 18:41:45;;;;;;;;;;;;;;;10.83;100.00;99842.16;5018939;23;19948;-93
2023/06/27 18:44:36;;;;;;;;;;;;;;;10.73;100.00;99837.25;4990304;28;19922;-92
2023/06/27 18:47:19;;;;;;;;;;;;;;;10.74;100.00;99830.19;4992839;28;19975;-94
2023/06/27 18:49:45;;;;;;;;;;;;;;;10.80;100.00;99840.53;4984938;28;19949;-92
2023/06/27 18:52:43;;;;;;;;;;;;;;;;;;;;;
2023/06/27 18:58:41;;;;;;;;;;;;;;;10.78;100.00;99845.00;4904566;29;19920;-93
2023/06/27 19:03:58;;;;;;;;;;;;;;;10.70;100.00;99850.63;5030610;23;19925;-95
2023/06/27 19:06:32;;;;;;;;;;;;;;;10.84;100.00;99850.06;5006083;28;19928;-95
2023/06/27 19:09:19;;;;;;;;;;;;;;;10.77;100.00;99847.72;5030052;23;20270;-95
2023/06/27 19:14:59;;;;;;;;;;;;;;;10.82;100.00;99846.59;5069411;22;20915;-95
2023/06/27 19:17:26;;;;;;;;;;;;;;;10.99;100.00;99832.63;4967005;28;19925;-94
2023/06/27 19:19:52;;;;;;;;;;;;;;;10.83;100.00;99836.88;4970299;28;19918;-94
2023/06/27 19:22:17;;;;;;;;;;;;;;;10.99;100.00;99847.66;4969302;28;19928;-95
2023/06/27 19:24:42;;;;;;;;;;;;;;;11.05;100.00;99848.25;4969019;28;19918;-93
2023/06/27 19:27:08;;;;;;;;;;;;;;;10.86;100.00;99840.22;4981397;28;19926;-93
2023/06/27 19:35:10;;;;;;;;;;;;;;;;;;;;;
2023/06/27 19:37:46;;;;;;;;;;;;;;;10.97;100.00;99854.84;5029446;28;19921;-95
2023/06/27 19:40:14;;;;;;;;;;;;;;;11.02;100.00;99853.69;5025250;28;20446;-95
2023/06/27 19:42:39;;;;;;;;;;;;;;;10.98;100.00;99861.88;5005321;28;20413;-94
2023/06/27 19:45:15;;;;;;;;;;;;;;;11.01;100.00;99864.34;4984991;28;19927;-95
2023/06/27 19:47:43;;;;;;;;;;;;;;;11.07;100.00;99870.28;4988109;28;19918;-96
2023/06/27 19:50:09;;;;;;;;;;;;;;;10.97;100.00;99873.38;4989337;28;20329;-94
2023/06/27 19:52:39;;;;;;;;;;;;;;;10.98;100.00;99872.47;4991140;28;19924;-94
2023/06/27 19:55:05;;;;;;;;;;;;;;;11.09;100.00;99879.03;4991258;28;19932;-95
2023/06/27 19:57:33;;;;;;;;;;;;;;;10.97;100.00;99876.88;4982162;28;20313;-94
2023/06/27 19:59:58;;;;;;;;;;;;;;;10.95;100.00;99886.72;4981945;28;19918;-95
2023/06/27 20:02:47;;;;;;;;;;;;;;;10.96;100.00;99879.59;4982053;28;19921;-95
2023/06/27 20:05:13;;;;;;;;;;;;;;;10.96;100.00;99888.44;4983312;28;19922;-94
2023/06/27 20:07:54;;;;;;;;;;;;;;;11.01;100.00;99886.44;4996894;23;19926;-95
2023/06/27 20:10:27;;;;;;;;;;;;;;;11.01;100.00;99886.44;5002016;28;19925;-95
2023/06/27 20:12:55;;;;;;;;;;;;;;;11.54;100.00;99886.81;5001731;28;20377;-92
2023/06/27 20:15:30;;;;;;;;;;;;;;;11.09;100.00;99883.47;5018410;28;19929;-94
2023/06/27 20:17:57;;;;;;;;;;;;;;;11.02;100.00;99872.25;5000664;28;19929;-95
2023/06/27 20:20:23;;;;;;;;;;;;;;;10.68;100.00;99879.00;5007043;28;19924;-94
2023/06/27 20:22:50;;;;;;;;;;;;;;;10.69;100.00;99891.31;5009564;28;19925;-96
2023/06/27 20:25:16;;;;;;;;;;;;;;;10.74;100.00;99885.84;5008523;28;19996;-93
2023/06/27 20:27:42;;;;;;;;;;;;;;;10.66;100.00;99887.94;5009706;28;19924;-94
2023/06/27 20:30:08;;;;;;;;;;;;;;;10.69;100.00;99888.69;5006648;28;19968;-91
2023/06/27 20:32:33;;;;;;;;;;;;;;;10.70;100.00;99878.94;5015787;28;20446;-93
2023/06/27 20:34:59;;;;;;;;;;;;;;;10.57;100.00;99883.88;5017799;28;19917;-94
2023/06/27 20:37:24;;;;;;;;;;;;;;;10.60;100.00;99886.41;5002745;28;19917;-92
2023/06/27 20:39:52;;;;;;;;;;;;;;;10.62;100.00;99881.03;5002508;28;19952;-95
2023/06/27 20:42:18;;;;;;;;;;;;;;;10.67;100.00;99877.28;5004590;28;19914;-94
2023/06/27 20:44:44;;;;;;;;;;;;;;;10.61;100.00;99885.50;5005411;28;20008;-94
2023/06/27 20:47:27;;;;;;;;;;;;;;;10.59;100.00;99889.97;5023311;28;19914;-96
2023/06/27 20:50:02;;;;;;;;;;;;;;;;;;;;;
2023/06/27 20:52:28;;;;;;;;;;;;;;;10.61;100.00;99893.44;5023881;28;20347;-94
2023/06/27 20:54:53;;;;;;;;;;;;;;;10.57;100.00;99890.97;5005095;28;19975;-94
2023/06/27 20:57:19;;;;;;;;;;;;;;;10.58;100.00;99888.25;5021153;28;20276;-94
2023/06/27 20:59:45;;;;;;;;;;;;;;;10.61;100.00;99896.09;5004700;28;19952;-92
2023/06/27 21:02:13;;;;;;;;;;;;;;;10.55;100.00;99888.38;5005083;28;19917;-94
2023/06/27 21:04:39;;;;;;;;;;;;;;;10.56;100.00;99890.09;5005001;28;19918;-94
2023/06/27 21:07:08;;;;;;;;;;;;;;;10.64;100.00;99898.63;5006396;28;20422;-93
2023/06/27 21:09:35;;;;;;;;;;;;;;;10.52;100.00;99891.16;5006345;28;19918;-93
2023/06/27 21:12:00;;;;;;;;;;;;;;;10.55;100.00;99888.38;5005951;28;19941;-94
2023/06/27 21:14:35;;;;;;;;;;;;;;;10.60;100.00;99883.75;5005262;28;19965;-93
2023/06/27 21:17:03;;;;;;;;;;;;;;;10.58;100.00;99890.03;4962455;29;19933;-93
2023/06/27 21:19:29;;;;;;;;;;;;;;;10.62;100.00;99889.84;4960230;28;19953;-93
2023/06/27 21:22:03;;;;;;;;;;;;;;;10.67;100.00;99887.00;4953947;28;20333;-92
2023/06/27 21:24:28;;;;;;;;;;;;;;;10.63;100.00;99885.44;4958599;29;20032;-93
2023/06/27 21:27:06;;;;;;;;;;;;;;;;;;;;;
2023/06/27 21:29:32;;;;;;;;;;;;;;;10.60;100.00;99894.34;4958487;29;19929;-94
2023/06/27 21:31:57;;;;;;;;;;;;;;;10.72;100.00;99895.63;4949922;29;20001;-94
2023/06/27 21:34:32;;;;;;;;;;;;;;;10.72;100.00;99888.56;4949199;29;19972;-94
2023/06/27 21:37:05;;;;;;;;;;;;;;;10.67;100.00;99887.88;4956989;29;19927;-94
2023/06/27 21:39:32;;;;;;;;;;;;;;;10.80;100.00;99890.00;4941966;29;20449;-95
2023/06/27 21:42:05;;;;;;;;;;;;;;;10.70;100.00;99879.78;4981349;28;19921;-95
2023/06/27 21:44:33;;;;;;;;;;;;;;;10.72;100.00;99879.72;4999648;28;19925;-95
2023/06/27 21:47:00;;;;;;;;;;;;;;;10.72;100.00;99880.59;5000322;28;19944;-95
2023/06/27 21:49:26;;;;;;;;;;;;;;;10.69;100.00;99886.03;4999481;28;19963;-95
2023/06/27 21:51:51;;;;;;;;;;;;;;;10.81;100.00;99886.44;5014426;28;20329;-93
2023/06/27 21:54:19;;;;;;;;;;;;;;;10.81;100.00;99891.72;4998669;28;19917;-95
2023/06/27 21:56:45;;;;;;;;;;;;;;;10.66;100.00;99877.34;5030593;28;20008;-92
2023/06/27 21:59:12;;;;;;;;;;;;;;;10.77;100.00;99879.53;4998849;28;20007;-94
2023/06/27 22:01:49;;;;;;;;;;;;;;;10.81;100.00;99881.13;4998502;28;19996;-95
2023/06/27 22:04:22;;;;;;;;;;;;;;;10.78;100.00;99884.75;4992081;28;19957;-95
2023/06/27 22:06:49;;;;;;;;;;;;;;;10.88;100.00;99887.88;5000283;28;20028;-93
2023/06/27 22:09:30;;;;;;;;;;;;;;;;;;;;;
2023/06/27 22:12:01;;;;;;;;;;;;;;;10.86;100.00;99890.59;5015585;28;19921;-95
2023/06/27 22:14:36;;;;;;;;;;;;;;;;;;;;;
2023/06/27 22:17:23;;;;;;;;;;;;;;;10.85;100.00;99893.31;5014277;28;19918;-94
2023/06/27 22:20:35;;;;;;;;;;;;;;;;;;;;;
2023/06/27 22:23:32;;;;;;;;;;;;;;;;;;;;;
2023/06/27 22:26:14;;;;;;;;;;;;;;;11.02;100.00;99896.09;5014848;28;19923;-94
2023/06/27 22:28:52;;;;;;;;;;;;;;;;;;;;;
2023/06/27 22:31:26;;;;;;;;;;;;;;;10.84;100.00;99899.56;5008728;28;19918;-95
